Saturday, January 20, 2018, 1:23 AM GMT
Back to Local

CWER, Ile D'Orleans Automated Reporting Station

Location: , , Canada Lat: 47
Local Time: 1:23 AM GMT ( 1:23 GMT) Lon: -70.817
Time Zone: GMT Elev: 16 ft

Show me the last for .
Show Coded

Time T Td Feel RH Dir Speed Gust Alt SLP Vis Weather Sky Remarks
2018-01-20 01:00 - - - 0 240° 10 - - - 0 None
2018-01-20 00:00 - - - 0 240° 13 - - - 0 None
2018-01-19 23:00 - - - 0 240° 12 - - - 0 None
2018-01-19 22:00 - - - 0 240° 6 - - - 0 None
2018-01-19 21:00 - - - 0 250° 6 - - - 0 None
2018-01-19 20:00 - - - 0 240° 10 - - - 0 None
2018-01-19 19:00 - - - 0 240° 13 - - - 0 None
2018-01-19 18:00 - - - 0 230° 12 - - - 0 None
2018-01-19 17:00 - - - 0 230° 12 17 - - 0 None
2018-01-19 16:00 - - - 0 230° 10 - - - 0 None
2018-01-19 15:00 - - - 0 230° 8 - - - 0 None
2018-01-19 14:00 - - - 0 230° 5 - - - 0 None
2018-01-19 13:00 - - - 0 270° 1 - - - 0 None
2018-01-19 12:00 - - - 0 320° 1 - - - 0 None
2018-01-19 11:00 - - - 0 - Calm - - - 0 None
2018-01-19 10:00 - - - 0 20° 2 - - - 0 None
2018-01-19 09:00 - - - 0 - Calm - - - 0 None
2018-01-19 08:00 - - - 0 340° 1 - - - 0 None
2018-01-19 07:00 - - - 0 220° 6 - - - 0 None
2018-01-19 06:00 - - - 0 180° 2 - - - 0 None
2018-01-19 05:00 - - - 0 250° 3 - - - 0 None
2018-01-19 04:00 - - - 0 210° 5 - - - 0 None
2018-01-19 03:00 - - - 0 240° 9 - - - 0 None
2018-01-19 02:00 - - - 0 230° 13 - - - 0 None

Support USWX by starting your Amazon purchase here.